createdAt,value
2018-07-11T00:03:00.623Z,16.80
2018-07-11T00:05:05.189Z,16.80
2018-07-11T00:07:09.651Z,16.80
2018-07-11T00:09:14.151Z,16.80
2018-07-11T00:11:18.649Z,16.80
2018-07-11T00:13:23.194Z,16.80
2018-07-11T00:15:27.655Z,16.80
2018-07-11T00:17:32.200Z,16.80
2018-07-11T00:19:36.962Z,16.80
2018-07-11T00:21:41.533Z,16.90
2018-07-11T00:23:46.078Z,16.90
2018-07-11T00:25:50.762Z,16.80
2018-07-11T00:27:56.375Z,16.90
2018-07-11T00:30:00.944Z,16.90
2018-07-11T00:32:05.445Z,16.90
2018-07-11T00:34:09.970Z,16.90
2018-07-11T00:36:14.725Z,16.90
2018-07-11T00:38:19.470Z,16.90
2018-07-11T00:40:23.983Z,16.90
2018-07-11T00:42:28.554Z,16.90
2018-07-11T00:44:33.250Z,16.90
2018-07-11T00:46:37.807Z,16.90
2018-07-11T00:48:42.343Z,16.80
2018-07-11T00:50:55.438Z,16.90
2018-07-11T00:53:00.143Z,16.90
2018-07-11T00:55:04.699Z,16.90
2018-07-11T00:57:09.283Z,16.90
2018-07-11T00:59:23.769Z,16.90
2018-07-11T01:01:31.042Z,16.90
2018-07-11T01:03:55.069Z,16.90
2018-07-11T01:06:00.557Z,16.90
2018-07-11T01:08:07.703Z,16.90
2018-07-11T01:10:15.668Z,16.90
2018-07-11T01:12:22.850Z,16.90
2018-07-11T01:14:28.867Z,16.90
2018-07-11T01:16:37.213Z,16.90
2018-07-11T01:19:08.512Z,16.90
2018-07-11T01:21:15.428Z,16.90
2018-07-11T01:25:27.443Z,16.90
2018-07-11T01:27:35.189Z,16.90
2018-07-11T01:29:40.993Z,16.90
2018-07-11T01:31:47.332Z,16.90
2018-07-11T01:33:55.138Z,16.90
2018-07-11T01:36:02.590Z,16.90
2018-07-11T01:38:10.853Z,16.90
2018-07-11T01:40:16.707Z,17.00
2018-07-11T01:42:22.346Z,17.00
2018-07-11T01:44:29.151Z,17.00
2018-07-11T01:46:52.953Z,17.00
2018-07-11T01:49:00.959Z,17.00
2018-07-11T01:51:06.526Z,17.00
2018-07-11T01:53:14.273Z,17.00
2018-07-11T01:55:22.330Z,17.00
2018-07-11T02:01:45.439Z,17.00
2018-07-11T02:03:52.342Z,17.00
2018-07-11T02:06:01.466Z,17.00
2018-07-11T02:08:07.230Z,17.00
2018-07-11T02:10:14.101Z,17.00
2018-07-11T02:12:20.065Z,17.00
2018-07-11T02:14:26.445Z,17.00
2018-07-11T02:16:34.254Z,17.00
2018-07-11T02:18:42.396Z,17.00
2018-07-11T02:20:47.518Z,17.10
2018-07-11T02:22:54.198Z,17.10
2018-07-11T02:24:58.734Z,17.10
2018-07-11T02:29:07.663Z,17.10
2018-07-11T02:31:12.211Z,17.10
2018-07-11T02:33:17.617Z,17.10
2018-07-11T02:35:22.157Z,17.00
2018-07-11T02:37:26.630Z,17.10
2018-07-11T02:39:31.551Z,17.10
2018-07-11T02:41:36.034Z,17.10
2018-07-11T02:43:40.630Z,17.10
2018-07-11T02:45:45.148Z,17.10
2018-07-11T02:49:53.945Z,17.10
2018-07-11T02:51:58.463Z,17.10
2018-07-11T02:58:11.440Z,17.10
2018-07-11T03:00:16.024Z,17.10
2018-07-11T03:02:20.629Z,17.10
2018-07-11T03:04:25.813Z,17.10
2018-07-11T03:06:30.396Z,17.10
2018-07-11T03:08:37.922Z,17.10
2018-07-11T03:10:42.394Z,17.10
2018-07-11T03:12:46.889Z,17.10
2018-07-11T03:14:52.518Z,17.00
2018-07-11T03:16:57.762Z,17.00
2018-07-11T03:19:02.215Z,17.10
2018-07-11T03:21:06.930Z,17.10
2018-07-11T03:23:11.459Z,17.10
2018-07-11T03:25:16.091Z,17.10
2018-07-11T03:27:20.599Z,17.10
2018-07-11T03:29:25.137Z,17.10
2018-07-11T03:31:29.577Z,17.10
2018-07-11T03:33:34.080Z,17.10
2018-07-11T03:35:38.620Z,17.10
2018-07-11T03:37:43.134Z,17.10
2018-07-11T03:39:47.678Z,17.10
2018-07-11T03:41:52.202Z,17.10
2018-07-11T03:43:56.762Z,17.10
2018-07-11T03:46:01.241Z,17.10
2018-07-11T03:48:05.845Z,17.10
2018-07-11T03:52:15.306Z,17.10
2018-07-11T03:54:19.814Z,17.20
2018-07-11T03:56:24.215Z,17.20
2018-07-11T03:58:28.662Z,17.10
2018-07-11T04:00:36.206Z,17.10
2018-07-11T04:02:42.045Z,17.10
2018-07-11T04:04:49.184Z,17.20
2018-07-11T04:06:54.374Z,17.20
2018-07-11T04:11:07.777Z,17.20
2018-07-11T04:13:20.345Z,17.10
2018-07-11T04:15:27.451Z,17.20
2018-07-11T04:17:35.046Z,17.20
2018-07-11T04:19:44.968Z,17.10
2018-07-11T04:21:54.310Z,17.20
2018-07-11T04:24:01.590Z,17.20
2018-07-11T04:26:09.593Z,17.20
2018-07-11T04:28:14.275Z,17.20
2018-07-11T04:30:18.897Z,17.10
2018-07-11T04:32:23.399Z,17.20
2018-07-11T04:34:27.935Z,17.20
2018-07-11T04:36:32.870Z,17.10
2018-07-11T04:38:38.482Z,17.10
2018-07-11T04:40:43.067Z,17.20
2018-07-11T04:42:47.615Z,17.10
2018-07-11T04:44:52.161Z,17.20
2018-07-11T04:46:56.770Z,17.20
2018-07-11T04:49:01.255Z,17.20
2018-07-11T04:51:05.996Z,17.10
2018-07-11T04:53:11.586Z,17.10
2018-07-11T04:55:16.143Z,17.10
2018-07-11T04:57:21.641Z,17.20
2018-07-11T04:59:26.226Z,17.20
2018-07-11T05:01:30.975Z,17.20
2018-07-11T05:03:35.389Z,17.10
2018-07-11T05:05:39.887Z,17.10
2018-07-11T05:07:44.330Z,17.20
2018-07-11T05:09:48.797Z,17.10
2018-07-11T05:11:53.215Z,17.10
2018-07-11T05:13:58.878Z,17.10
2018-07-11T05:16:03.325Z,17.10
2018-07-11T05:18:07.821Z,17.10
2018-07-11T05:20:12.323Z,17.10
2018-07-11T05:22:16.781Z,17.10
2018-07-11T05:24:21.270Z,17.10
2018-07-11T05:26:25.779Z,17.10
2018-07-11T05:28:30.238Z,17.10
2018-07-11T05:30:34.761Z,17.10
2018-07-11T05:32:39.212Z,17.10
2018-07-11T05:34:43.842Z,17.10
2018-07-11T05:36:48.334Z,17.10
2018-07-11T05:40:57.084Z,17.20
2018-07-11T05:43:01.511Z,17.10
2018-07-11T05:45:06.075Z,17.10
2018-07-11T05:47:10.539Z,17.20
2018-07-11T05:49:14.981Z,17.20
2018-07-11T05:51:20.350Z,17.10
2018-07-11T05:53:24.904Z,17.20
2018-07-11T05:55:29.407Z,17.20
2018-07-11T05:59:38.011Z,17.20
2018-07-11T06:01:42.499Z,17.30
2018-07-11T06:03:46.946Z,17.30
2018-07-11T06:05:51.506Z,17.30
2018-07-11T06:07:56.001Z,17.40
2018-07-11T06:12:04.850Z,17.50
2018-07-11T06:14:09.370Z,17.50
2018-07-11T06:16:13.949Z,17.50
2018-07-11T06:18:18.614Z,17.50
2018-07-11T06:20:23.051Z,17.60
2018-07-11T06:26:36.105Z,17.70
2018-07-11T06:28:40.624Z,17.80
2018-07-11T06:30:45.117Z,17.90
2018-07-11T06:32:49.524Z,17.90
2018-07-11T06:34:54.895Z,17.90
2018-07-11T06:37:01.682Z,18.00
2018-07-11T06:39:06.953Z,18.10
2018-07-11T06:41:11.494Z,18.20
2018-07-11T06:43:15.962Z,18.20
2018-07-11T06:45:20.690Z,18.30
2018-07-11T06:47:28.942Z,18.30
2018-07-11T06:49:33.727Z,18.40
2018-07-11T06:51:38.287Z,18.50
2018-07-11T06:53:42.742Z,18.50
2018-07-11T06:55:48.278Z,18.60
2018-07-11T06:57:52.838Z,18.60
2018-07-11T06:59:57.242Z,18.70
2018-07-11T07:02:01.710Z,18.80
2018-07-11T07:04:06.174Z,18.80
2018-07-11T07:06:10.690Z,18.90
2018-07-11T07:08:15.339Z,19.00
2018-07-11T07:14:29.155Z,19.10
2018-07-11T07:16:33.763Z,19.20
2018-07-11T07:18:38.228Z,19.30
2018-07-11T07:22:46.843Z,19.30
2018-07-11T07:24:51.474Z,19.40
2018-07-11T07:26:55.937Z,19.50
2018-07-11T07:31:05.181Z,19.60
2018-07-11T07:33:09.694Z,19.60
2018-07-11T07:35:16.993Z,19.70
2018-07-11T07:37:21.570Z,19.70
2018-07-11T07:39:26.046Z,19.70
2018-07-11T07:41:30.612Z,19.80
2018-07-11T07:43:35.925Z,19.80
2018-07-11T07:45:42.862Z,19.80
2018-07-11T07:47:48.096Z,19.90
2018-07-11T07:49:52.714Z,19.90
2018-07-11T07:51:57.547Z,20.00
2018-07-11T07:54:02.177Z,20.10
2018-07-11T07:58:11.245Z,20.30
2018-07-11T08:02:20.657Z,20.40
2018-07-11T08:04:25.172Z,20.50
2018-07-11T08:08:33.971Z,20.60
2018-07-11T08:10:40.837Z,20.60
2018-07-11T08:12:45.349Z,20.60
2018-07-11T08:14:49.806Z,20.70
2018-07-11T08:16:54.311Z,20.80
2018-07-11T08:18:58.762Z,20.80
2018-07-11T08:21:03.222Z,20.80
2018-07-11T08:23:26.603Z,20.90
2018-07-11T08:25:48.446Z,20.90
2018-07-11T08:28:06.018Z,20.90
2018-07-11T08:30:29.418Z,20.90
2018-07-11T08:34:58.031Z,21.00
2018-07-11T08:38:25.094Z,21.00
2018-07-11T08:40:44.879Z,21.00
2018-07-11T08:45:14.634Z,21.00
2018-07-11T08:47:54.001Z,20.90
2018-07-11T08:50:18.134Z,20.90
2018-07-11T08:53:45.361Z,20.90
2018-07-11T09:02:44.514Z,20.90
2018-07-11T09:05:24.766Z,20.90
2018-07-11T09:10:07.839Z,20.80
2018-07-11T09:16:10.702Z,20.80
2018-07-11T09:19:35.949Z,20.80
2018-07-11T09:22:33.238Z,20.80
2018-07-11T09:24:40.921Z,20.80
2018-07-11T09:26:45.491Z,20.80
2018-07-11T09:28:50.383Z,20.80
2018-07-11T09:30:54.913Z,20.80
2018-07-11T09:32:59.453Z,20.90
2018-07-11T09:35:04.018Z,20.90
2018-07-11T09:37:08.604Z,21.00
2018-07-11T09:39:13.221Z,21.00
2018-07-11T09:41:20.700Z,21.00
2018-07-11T09:43:25.434Z,21.10
2018-07-11T09:45:29.939Z,21.20
2018-07-11T09:47:34.574Z,21.20
2018-07-11T09:49:39.723Z,21.30
2018-07-11T09:51:44.232Z,21.30
2018-07-11T09:53:48.781Z,21.40
2018-07-11T09:55:53.331Z,21.50
2018-07-11T09:57:58.144Z,21.50
2018-07-11T10:00:02.744Z,21.60
2018-07-11T10:02:07.290Z,21.60
2018-07-11T10:04:14.601Z,21.70
2018-07-11T10:06:19.254Z,21.70
2018-07-11T10:08:24.614Z,21.80
2018-07-11T10:10:29.101Z,21.90
2018-07-11T10:12:33.815Z,21.90
2018-07-11T10:14:38.258Z,21.90
2018-07-11T10:16:42.747Z,22.00
2018-07-11T10:19:03.823Z,22.00
2018-07-11T10:21:08.274Z,22.10
2018-07-11T10:23:12.817Z,22.20
2018-07-11T10:25:17.303Z,22.20
2018-07-11T10:27:21.833Z,22.30
2018-07-11T10:29:26.465Z,22.40
2018-07-11T10:31:31.115Z,22.40
2018-07-11T10:33:35.621Z,22.50
2018-07-11T10:35:40.167Z,22.50
2018-07-11T10:37:44.927Z,22.50
2018-07-11T10:39:49.482Z,22.60
2018-07-11T10:41:53.988Z,22.60
2018-07-11T10:43:58.509Z,22.70
2018-07-11T10:46:03.027Z,22.70
2018-07-11T10:48:07.541Z,22.70
2018-07-11T10:50:12.142Z,22.80
2018-07-11T10:52:16.628Z,22.80
2018-07-11T10:54:21.254Z,22.90
2018-07-11T10:56:26.893Z,22.90
2018-07-11T10:58:31.397Z,22.90
2018-07-11T11:00:37.196Z,23.00
2018-07-11T11:04:44.718Z,23.10
2018-07-11T11:08:53.628Z,23.20
2018-07-11T11:10:58.176Z,23.20
2018-07-11T11:13:02.608Z,23.30
2018-07-11T11:15:07.248Z,23.30
2018-07-11T11:17:14.742Z,23.30
2018-07-11T11:19:23.295Z,23.40
2018-07-11T11:21:27.953Z,23.40
2018-07-11T11:23:32.398Z,23.40
2018-07-11T11:25:37.037Z,23.50
2018-07-11T11:27:47.237Z,23.50
2018-07-11T11:29:53.692Z,23.50
2018-07-11T11:31:58.727Z,23.60
2018-07-11T11:34:03.184Z,23.60
2018-07-11T11:36:07.759Z,23.50
2018-07-11T11:38:12.304Z,23.50
2018-07-11T11:40:16.865Z,23.50
2018-07-11T11:42:22.304Z,23.50
2018-07-11T11:44:26.671Z,23.50
2018-07-11T11:46:31.179Z,23.40
2018-07-11T11:48:35.811Z,23.40
2018-07-11T11:50:40.519Z,23.40
2018-07-11T11:52:46.248Z,23.40
2018-07-11T11:56:54.978Z,23.30
2018-07-11T11:58:59.398Z,23.30
2018-07-11T12:01:03.904Z,23.20
2018-07-11T12:03:09.823Z,23.20
2018-07-11T12:05:14.410Z,23.20
2018-07-11T12:07:19.070Z,23.10
2018-07-11T12:09:23.443Z,23.10
2018-07-11T12:11:27.959Z,22.90
2018-07-11T12:13:32.368Z,22.90
2018-07-11T12:15:36.901Z,22.90
2018-07-11T12:19:46.581Z,22.80
2018-07-11T12:21:51.056Z,22.80
2018-07-11T12:23:55.636Z,22.80
2018-07-11T12:26:10.170Z,22.80
2018-07-11T12:28:14.757Z,22.70
2018-07-11T12:30:19.247Z,22.70
2018-07-11T12:32:23.775Z,22.70
2018-07-11T12:34:28.850Z,22.70
2018-07-11T12:36:33.334Z,22.70
2018-07-11T12:38:37.810Z,22.70
2018-07-11T12:40:42.319Z,22.70
2018-07-11T12:44:51.040Z,22.80
2018-07-11T12:46:55.674Z,22.70
2018-07-11T12:49:06.525Z,22.80
2018-07-11T12:51:14.213Z,22.70
2018-07-11T12:53:18.879Z,22.70
2018-07-11T12:55:23.382Z,22.70
2018-07-11T12:57:28.057Z,22.70
2018-07-11T13:01:37.855Z,22.70
2018-07-11T13:03:42.443Z,22.70
2018-07-11T13:05:47.058Z,22.70
2018-07-11T13:07:51.597Z,22.70
2018-07-11T13:09:56.131Z,22.60
2018-07-11T13:12:00.962Z,22.60
2018-07-11T13:14:05.523Z,22.60
2018-07-11T13:16:10.139Z,22.60
2018-07-11T13:18:14.581Z,22.60
2018-07-11T13:20:19.039Z,22.50
2018-07-11T13:22:23.524Z,22.50
2018-07-11T13:24:28.058Z,22.40
2018-07-11T13:26:32.549Z,22.40
2018-07-11T13:28:37.100Z,22.40
2018-07-11T13:30:41.599Z,22.30
2018-07-11T13:32:46.167Z,22.30
2018-07-11T13:34:50.570Z,22.30
2018-07-11T13:38:59.386Z,22.30
2018-07-11T13:41:03.930Z,22.20
2018-07-11T13:43:09.079Z,22.20
2018-07-11T13:45:13.566Z,22.20
2018-07-11T13:47:23.240Z,22.10
2018-07-11T13:51:31.844Z,22.10
2018-07-11T13:53:36.353Z,22.10
2018-07-11T13:55:40.893Z,22.00
2018-07-11T13:57:45.982Z,22.00
2018-07-11T13:59:50.549Z,22.00
2018-07-11T14:01:55.143Z,21.90
2018-07-11T14:03:59.966Z,21.90
2018-07-11T14:06:12.205Z,21.90
2018-07-11T14:08:17.779Z,21.90
2018-07-11T14:10:25.306Z,21.80
2018-07-11T14:12:34.107Z,21.80
2018-07-11T14:14:40.378Z,21.80
2018-07-11T14:16:45.075Z,21.80
2018-07-11T14:18:50.871Z,21.80
2018-07-11T14:20:55.746Z,21.70
2018-07-11T14:23:07.623Z,21.70
2018-07-11T14:25:12.300Z,21.70
2018-07-11T14:27:16.910Z,21.70
2018-07-11T14:29:23.988Z,21.70
2018-07-11T14:31:32.060Z,21.70
2018-07-11T14:33:36.686Z,21.70
2018-07-11T14:35:41.273Z,21.70
2018-07-11T14:37:46.594Z,21.70
2018-07-11T14:39:51.108Z,21.70
2018-07-11T14:44:00.813Z,21.70
2018-07-11T14:46:06.022Z,21.70
2018-07-11T14:48:14.060Z,21.70
2018-07-11T14:50:18.830Z,21.60
2018-07-11T14:52:23.534Z,21.60
2018-07-11T14:54:28.131Z,21.60
2018-07-11T14:56:35.075Z,21.60
2018-07-11T14:58:39.661Z,21.60
2018-07-11T15:00:44.163Z,21.60
2018-07-11T15:02:48.747Z,21.60
2018-07-11T15:04:53.387Z,21.60
2018-07-11T15:06:57.999Z,21.60
2018-07-11T15:09:02.828Z,21.60
2018-07-11T15:11:08.923Z,21.60
2018-07-11T15:13:14.508Z,21.60
2018-07-11T15:15:19.070Z,21.60
2018-07-11T15:17:23.759Z,21.60
2018-07-11T15:19:28.342Z,21.60
2018-07-11T15:21:32.922Z,21.60
2018-07-11T15:23:38.286Z,21.60
2018-07-11T15:25:42.844Z,21.60
2018-07-11T15:27:47.451Z,21.60
2018-07-11T15:29:51.986Z,21.60
2018-07-11T15:31:56.525Z,21.50
2018-07-11T15:34:01.102Z,21.50
2018-07-11T15:36:05.594Z,21.60
2018-07-11T15:38:10.181Z,21.60
2018-07-11T15:40:15.311Z,21.60
2018-07-11T15:42:19.882Z,21.50
2018-07-11T15:46:29.395Z,21.50
2018-07-11T15:48:34.099Z,21.50
2018-07-11T15:50:38.924Z,21.50
2018-07-11T15:52:43.551Z,21.50
2018-07-11T15:54:48.176Z,21.50
2018-07-11T15:56:52.892Z,21.50
2018-07-11T15:59:09.392Z,21.50
2018-07-11T16:01:13.808Z,21.50
2018-07-11T16:03:19.538Z,21.50
2018-07-11T16:05:25.683Z,21.50
2018-07-11T16:09:49.387Z,21.40
2018-07-11T16:11:53.942Z,21.40
2018-07-11T16:13:58.771Z,21.40
2018-07-11T16:16:03.316Z,21.40
2018-07-11T16:18:08.910Z,21.50
2018-07-11T16:20:13.629Z,21.50
2018-07-11T16:22:20.017Z,21.50
2018-07-11T16:24:24.965Z,21.50
2018-07-11T16:26:30.233Z,21.50
2018-07-11T16:28:35.751Z,21.50
2018-07-11T16:30:40.311Z,21.40
2018-07-11T16:32:44.818Z,21.40
2018-07-11T16:34:49.409Z,21.40
2018-07-11T16:36:54.157Z,21.40
2018-07-11T16:38:59.102Z,21.40
2018-07-11T16:41:03.795Z,21.40
2018-07-11T16:43:08.296Z,21.40
2018-07-11T16:45:12.827Z,21.40
2018-07-11T16:47:17.725Z,21.40
2018-07-11T16:49:22.330Z,21.40
2018-07-11T16:51:26.915Z,21.40
2018-07-11T16:53:31.517Z,21.40
2018-07-11T16:55:38.024Z,21.40
2018-07-11T16:57:50.186Z,21.40
2018-07-11T17:00:07.314Z,21.40
2018-07-11T17:02:11.966Z,21.40
2018-07-11T17:04:16.548Z,21.40
2018-07-11T17:06:21.155Z,21.40
2018-07-11T17:08:36.681Z,21.40
2018-07-11T17:10:43.542Z,21.40
2018-07-11T17:12:54.438Z,21.40
2018-07-11T17:15:00.913Z,21.40
2018-07-11T17:17:06.174Z,21.40
2018-07-11T17:19:23.379Z,21.40
2018-07-11T17:21:41.204Z,21.40
2018-07-11T17:23:52.284Z,21.40
2018-07-11T17:25:56.895Z,21.40
2018-07-11T17:28:03.514Z,21.50
2018-07-11T17:30:07.973Z,21.50
2018-07-11T17:32:13.345Z,21.50
2018-07-11T17:34:18.178Z,21.50
2018-07-11T17:36:22.705Z,21.50
2018-07-11T17:38:31.252Z,21.50
2018-07-11T17:40:40.207Z,21.50
2018-07-11T17:42:45.831Z,21.50
2018-07-11T17:47:27.565Z,21.50
2018-07-11T17:52:04.082Z,21.50
2018-07-11T17:54:08.697Z,21.50
2018-07-11T17:56:14.597Z,21.50
2018-07-11T17:58:20.922Z,21.50
2018-07-11T18:00:49.734Z,21.50
2018-07-11T18:03:05.967Z,21.50
2018-07-11T18:05:25.841Z,21.50
2018-07-11T18:10:00.161Z,21.50
2018-07-11T18:12:22.216Z,21.50
2018-07-11T18:14:44.039Z,21.50
2018-07-11T18:17:04.336Z,21.50
2018-07-11T18:20:25.883Z,21.50
2018-07-11T18:22:57.665Z,21.50
2018-07-11T18:25:26.998Z,21.50
2018-07-11T18:31:02.937Z,21.40
2018-07-11T18:33:39.167Z,21.40
2018-07-11T18:36:10.674Z,21.30
2018-07-11T18:38:24.477Z,21.20
2018-07-11T18:40:38.380Z,21.20
2018-07-11T18:42:59.568Z,21.10
2018-07-11T18:45:17.564Z,21.10
2018-07-11T18:47:39.452Z,21.10
2018-07-11T18:52:33.290Z,21.10
2018-07-11T18:54:57.225Z,21.10
2018-07-11T18:57:09.792Z,21.00
2018-07-11T18:59:30.009Z,21.00
2018-07-11T19:01:49.118Z,21.00
2018-07-11T19:05:09.547Z,21.00
2018-07-11T19:07:34.304Z,21.00
2018-07-11T19:09:53.728Z,21.00
2018-07-11T19:13:04.618Z,21.00
2018-07-11T19:15:13.902Z,21.00
2018-07-11T19:17:28.536Z,21.00
2018-07-11T19:19:43.709Z,20.90
2018-07-11T19:21:58.619Z,21.00
2018-07-11T19:24:09.040Z,21.00
2018-07-11T19:26:28.501Z,21.00
2018-07-11T19:29:52.863Z,21.00
2018-07-11T19:32:10.271Z,21.00
2018-07-11T19:36:42.782Z,20.90
2018-07-11T19:39:12.266Z,20.90
2018-07-11T19:41:25.630Z,20.80
2018-07-11T19:47:04.432Z,20.80
2018-07-11T19:49:37.553Z,20.80
2018-07-11T19:54:00.542Z,20.50
2018-07-11T19:57:11.535Z,20.50
2018-07-11T19:59:16.266Z,20.50
2018-07-11T20:01:20.827Z,20.50
2018-07-11T20:03:25.544Z,20.50
2018-07-11T20:07:39.452Z,20.50
2018-07-11T20:09:44.906Z,20.50
2018-07-11T20:11:50.531Z,20.50
2018-07-11T20:13:55.482Z,20.60
2018-07-11T20:16:00.035Z,20.60
2018-07-11T20:18:05.282Z,20.60
2018-07-11T20:20:09.749Z,20.60
2018-07-11T20:24:19.784Z,20.60
2018-07-11T20:26:24.507Z,20.70
2018-07-11T20:28:29.062Z,20.70
2018-07-11T20:30:33.702Z,20.70
2018-07-11T20:32:38.533Z,20.70
2018-07-11T20:34:43.687Z,20.70
2018-07-11T20:36:48.762Z,20.70
2018-07-11T20:38:53.333Z,20.70
2018-07-11T20:40:57.829Z,20.70
2018-07-11T20:43:02.599Z,20.70
2018-07-11T20:45:07.255Z,20.70
2018-07-11T20:47:11.751Z,20.80
2018-07-11T20:49:21.804Z,20.80
2018-07-11T20:51:26.269Z,20.70
2018-07-11T20:53:30.737Z,20.80
2018-07-11T20:55:36.278Z,20.80
2018-07-11T20:57:40.938Z,20.80
2018-07-11T21:00:02.505Z,20.80
2018-07-11T21:02:24.163Z,20.80
2018-07-11T21:06:47.795Z,20.80
2018-07-11T21:11:13.920Z,20.80
2018-07-11T21:13:38.131Z,20.70
2018-07-11T21:16:58.320Z,20.60
2018-07-11T21:21:14.002Z,20.50
2018-07-11T21:23:18.545Z,20.50
2018-07-11T21:27:27.970Z,20.50
2018-07-11T21:29:32.486Z,20.50
2018-07-11T21:31:37.026Z,20.50
2018-07-11T21:33:41.502Z,20.50
2018-07-11T21:35:46.386Z,20.50
2018-07-11T21:37:51.114Z,20.50
2018-07-11T21:39:55.651Z,20.60
2018-07-11T21:42:00.599Z,20.60
2018-07-11T21:44:05.160Z,20.60
2018-07-11T21:46:09.626Z,20.60
2018-07-11T21:48:14.101Z,20.60
2018-07-11T21:50:18.638Z,20.60
2018-07-11T21:52:23.990Z,20.60
2018-07-11T21:54:28.438Z,20.60
2018-07-11T21:56:32.893Z,20.60
2018-07-11T21:58:37.470Z,20.60
2018-07-11T22:00:42.230Z,20.60
2018-07-11T22:02:46.621Z,20.70
2018-07-11T22:06:55.386Z,20.60
2018-07-11T22:08:59.849Z,20.70
2018-07-11T22:11:04.314Z,20.70
2018-07-11T22:13:09.466Z,20.70
2018-07-11T22:15:13.914Z,20.60
2018-07-11T22:17:31.490Z,20.60
2018-07-11T22:21:38.131Z,20.60
2018-07-11T22:25:44.983Z,20.60
2018-07-11T22:27:48.186Z,20.60
2018-07-11T22:29:50.898Z,20.60
2018-07-11T22:31:53.626Z,20.60
2018-07-11T22:33:56.432Z,20.60
2018-07-11T22:35:59.206Z,20.60
2018-07-11T22:40:06.153Z,20.60
2018-07-11T22:42:08.859Z,20.60
2018-07-11T22:44:11.610Z,20.60
2018-07-11T22:46:14.314Z,20.60
2018-07-11T22:48:17.090Z,20.60
2018-07-11T22:50:19.790Z,20.60
2018-07-11T22:52:22.815Z,20.60
2018-07-11T22:54:25.583Z,20.60
2018-07-11T22:56:28.306Z,20.70
2018-07-11T22:58:31.066Z,20.60
2018-07-11T23:00:33.790Z,20.70
2018-07-11T23:02:36.521Z,20.60
2018-07-11T23:04:39.318Z,20.70
2018-07-11T23:06:42.969Z,20.70
2018-07-11T23:08:45.710Z,20.60
2018-07-11T23:10:48.441Z,20.70
2018-07-11T23:12:51.170Z,20.70
2018-07-11T23:14:53.954Z,20.60
2018-07-11T23:16:57.662Z,20.70
2018-07-11T23:19:00.407Z,20.70
2018-07-11T23:21:03.130Z,20.60
2018-07-11T23:23:05.843Z,20.60
2018-07-11T23:25:08.590Z,20.60
2018-07-11T23:27:11.656Z,20.60
2018-07-11T23:29:14.427Z,20.60
2018-07-11T23:31:17.138Z,20.60
2018-07-11T23:33:19.866Z,20.60
2018-07-11T23:35:23.253Z,20.60
2018-07-11T23:37:25.997Z,20.60
2018-07-11T23:39:28.747Z,20.50
2018-07-11T23:41:31.472Z,20.60
2018-07-11T23:43:34.196Z,20.60
2018-07-11T23:45:36.938Z,20.50
2018-07-11T23:47:39.662Z,20.60
2018-07-11T23:49:43.365Z,20.50
2018-07-11T23:51:46.104Z,20.60
2018-07-11T23:53:49.226Z,20.60
2018-07-11T23:55:53.762Z,20.60
2018-07-11T23:57:56.483Z,20.60
2018-07-11T23:59:59.227Z,20.50
